sensor_id;sensor_type;location;lat;lon;timestamp;pressure;altitude;pressure_sealevel;temperature;humidity
27202;BME280;14717;46.924;15.474;2023-04-22T00:00:11;97671.06;;;8.39;95.66
27202;BME280;14717;46.924;15.474;2023-04-22T00:02:37;97676.63;;;8.29;95.05
27202;BME280;14717;46.924;15.474;2023-04-22T00:05:03;97671.72;;;8.21;96.44
27202;BME280;14717;46.924;15.474;2023-04-22T00:07:30;97684.91;;;8.24;96.36
27202;BME280;14717;46.924;15.474;2023-04-22T00:09:55;97677.72;;;8.33;96.01
27202;BME280;14717;46.924;15.474;2023-04-22T00:12:20;97671.06;;;8.39;96.10
27202;BME280;14717;46.924;15.474;2023-04-22T00:14:46;97670.75;;;8.46;95.17
27202;BME280;14717;46.924;15.474;2023-04-22T00:17:12;97679.28;;;8.49;94.51
27202;BME280;14717;46.924;15.474;2023-04-22T00:19:37;97671.97;;;8.30;93.06
27202;BME280;14717;46.924;15.474;2023-04-22T00:22:02;97675.56;;;8.25;94.41
27202;BME280;14717;46.924;15.474;2023-04-22T00:24:28;97680.84;;;8.12;97.94
27202;BME280;14717;46.924;15.474;2023-04-22T00:26:54;97677.56;;;7.95;99.60
27202;BME280;14717;46.924;15.474;2023-04-22T00:29:19;97666.34;;;7.87;98.35
27202;BME280;14717;46.924;15.474;2023-04-22T00:31:44;97667.97;;;7.93;97.84
27202;BME280;14717;46.924;15.474;2023-04-22T00:34:10;97666.31;;;7.92;97.35
27202;BME280;14717;46.924;15.474;2023-04-22T00:36:35;97660.00;;;7.86;98.40
27202;BME280;14717;46.924;15.474;2023-04-22T00:39:01;97653.72;;;7.81;98.61
27202;BME280;14717;46.924;15.474;2023-04-22T00:41:26;97656.69;;;7.94;97.65
27202;BME280;14717;46.924;15.474;2023-04-22T00:43:52;97660.50;;;7.98;97.90
27202;BME280;14717;46.924;15.474;2023-04-22T00:46:18;97654.19;;;8.03;96.92
27202;BME280;14717;46.924;15.474;2023-04-22T00:48:47;97654.19;;;8.03;97.09
27202;BME280;14717;46.924;15.474;2023-04-22T00:51:12;97657.19;;;8.01;97.23
27202;BME280;14717;46.924;15.474;2023-04-22T00:53:38;97657.19;;;8.01;96.87
27202;BME280;14717;46.924;15.474;2023-04-22T00:56:04;97647.28;;;8.00;96.25
27202;BME280;14717;46.924;15.474;2023-04-22T00:58:29;97659.41;;;7.99;96.26
27202;BME280;14717;46.924;15.474;2023-04-22T01:00:56;97656.44;;;7.86;95.41
27202;BME280;14717;46.924;15.474;2023-04-22T01:03:22;97648.00;;;7.67;96.38
27202;BME280;14717;46.924;15.474;2023-04-22T01:05:48;97651.34;;;7.50;96.48
27202;BME280;14717;46.924;15.474;2023-04-22T01:08:14;97654.38;;;7.48;97.03
27202;BME280;14717;46.924;15.474;2023-04-22T01:10:41;97663.72;;;7.37;97.47
27202;BME280;14717;46.924;15.474;2023-04-22T01:13:07;97657.94;;;7.39;97.59
27202;BME280;14717;46.924;15.474;2023-04-22T01:15:32;97656.00;;;7.44;97.35
27202;BME280;14717;46.924;15.474;2023-04-22T01:18:00;97652.44;;;7.49;97.07
27202;BME280;14717;46.924;15.474;2023-04-22T01:20:28;97654.88;;;7.60;97.01
27202;BME280;14717;46.924;15.474;2023-04-22T01:22:54;97648.28;;;7.61;96.52
27202;BME280;14717;46.924;15.474;2023-04-22T01:25:25;97663.66;;;7.62;95.67
27202;BME280;14717;46.924;15.474;2023-04-22T01:28:08;97665.34;;;7.53;94.86
27202;BME280;14717;46.924;15.474;2023-04-22T01:31:00;97662.34;;;7.40;95.34
27202;BME280;14717;46.924;15.474;2023-04-22T01:34:18;97658.25;;;7.27;96.61
27202;BME280;14717;46.924;15.474;2023-04-22T01:37:46;97664.03;;;7.06;97.47
27202;BME280;14717;46.924;15.474;2023-04-22T01:41:04;97665.69;;;7.12;97.76
27202;BME280;14717;46.924;15.474;2023-04-22T01:53:56;97649.19;;;7.32;94.38
27202;BME280;14717;46.924;15.474;2023-04-22T01:59:28;97647.81;;;7.15;94.69
27202;BME280;14717;46.924;15.474;2023-04-22T02:05:57;97651.16;;;6.82;97.33
27202;BME280;14717;46.924;15.474;2023-04-22T02:08:27;97650.03;;;6.73;98.24
27202;BME280;14717;46.924;15.474;2023-04-22T02:15:26;97649.22;;;6.63;98.07
27202;BME280;14717;46.924;15.474;2023-04-22T02:21:56;97653.03;;;6.57;99.41
27202;BME280;14717;46.924;15.474;2023-04-22T02:39:01;97642.06;;;6.57;97.22
27202;BME280;14717;46.924;15.474;2023-04-22T02:45:15;97657.41;;;6.33;99.41
27202;BME280;14717;46.924;15.474;2023-04-22T02:58:09;97648.28;;;6.18;98.30
27202;BME280;14717;46.924;15.474;2023-04-22T03:00:34;97653.47;;;6.09;98.49
27202;BME280;14717;46.924;15.474;2023-04-22T03:03:00;97648.81;;;6.05;99.09
27202;BME280;14717;46.924;15.474;2023-04-22T03:05:25;97643.31;;;5.95;100.00
27202;BME280;14717;46.924;15.474;2023-04-22T03:07:51;97647.13;;;5.89;99.95
27202;BME280;14717;46.924;15.474;2023-04-22T03:10:17;97654.81;;;5.92;99.33
27202;BME280;14717;46.924;15.474;2023-04-22T03:12:42;97646.63;;;6.07;98.96
27202;BME280;14717;46.924;15.474;2023-04-22T03:15:08;97643.66;;;6.23;99.10
27202;BME280;14717;46.924;15.474;2023-04-22T03:17:33;97649.44;;;6.32;98.65
27202;BME280;14717;46.924;15.474;2023-04-22T03:19:59;97652.16;;;6.27;97.27
27202;BME280;14717;46.924;15.474;2023-04-22T03:22:24;97646.94;;;6.20;96.72
27202;BME280;14717;46.924;15.474;2023-04-22T03:24:49;97649.16;;;6.28;96.23
27202;BME280;14717;46.924;15.474;2023-04-22T03:27:15;97644.47;;;6.19;96.54
27202;BME280;14717;46.924;15.474;2023-04-22T03:29:40;97647.72;;;6.06;97.16
27202;BME280;14717;46.924;15.474;2023-04-22T03:32:05;97650.47;;;6.06;97.39
27202;BME280;14717;46.924;15.474;2023-04-22T03:34:31;97651.03;;;6.13;96.76
27202;BME280;14717;46.924;15.474;2023-04-22T03:36:57;97643.66;;;6.18;96.82
27202;BME280;14717;46.924;15.474;2023-04-22T03:39:22;97647.19;;;6.09;96.33
27202;BME280;14717;46.924;15.474;2023-04-22T03:41:48;97654.06;;;6.16;96.74
27202;BME280;14717;46.924;15.474;2023-04-22T03:44:13;97645.53;;;6.13;96.08
27202;BME280;14717;46.924;15.474;2023-04-22T03:46:38;97653.75;;;6.08;96.74
27202;BME280;14717;46.924;15.474;2023-04-22T03:49:04;97652.34;;;5.95;98.03
27202;BME280;14717;46.924;15.474;2023-04-22T03:51:30;97655.09;;;5.95;100.00
27202;BME280;14717;46.924;15.474;2023-04-22T03:53:55;97668.50;;;5.92;100.00
27202;BME280;14717;46.924;15.474;2023-04-22T03:56:20;97656.34;;;5.73;100.00
27202;BME280;14717;46.924;15.474;2023-04-22T03:58:46;97658.22;;;5.68;100.00
27202;BME280;14717;46.924;15.474;2023-04-22T04:01:11;97666.78;;;5.76;100.00
27202;BME280;14717;46.924;15.474;2023-04-22T04:03:36;97662.19;;;5.82;100.00
27202;BME280;14717;46.924;15.474;2023-04-22T04:06:02;97653.94;;;5.77;100.00
27202;BME280;14717;46.924;15.474;2023-04-22T04:08:27;97656.97;;;5.80;100.00
27202;BME280;14717;46.924;15.474;2023-04-22T04:10:53;97654.81;;;5.92;99.11
27202;BME280;14717;46.924;15.474;2023-04-22T04:13:18;97655.38;;;6.04;98.48
27202;BME280;14717;46.924;15.474;2023-04-22T04:15:44;97662.56;;;6.10;97.40
27202;BME280;14717;46.924;15.474;2023-04-22T04:18:09;97658.16;;;6.14;96.65
27202;BME280;14717;46.924;15.474;2023-04-22T04:20:35;97666.91;;;6.06;96.01
27202;BME280;14717;46.924;15.474;2023-04-22T04:23:01;97666.88;;;6.01;96.49
27202;BME280;14717;46.924;15.474;2023-04-22T04:25:26;97671.00;;;5.98;96.00
27202;BME280;14717;46.924;15.474;2023-04-22T04:27:53;97669.56;;;5.81;97.45
27202;BME280;14717;46.924;15.474;2023-04-22T04:30:18;97670.66;;;5.80;97.10
27202;BME280;14717;46.924;15.474;2023-04-22T04:32:45;97672.28;;;5.76;98.51
27202;BME280;14717;46.924;15.474;2023-04-22T04:35:11;97673.66;;;5.74;99.44
27202;BME280;14717;46.924;15.474;2023-04-22T04:37:41;97673.84;;;5.67;99.37
27202;BME280;14717;46.924;15.474;2023-04-22T04:40:07;97671.22;;;5.82;100.00
27202;BME280;14717;46.924;15.474;2023-04-22T04:42:34;97672.09;;;6.02;99.24
27202;BME280;14717;46.924;15.474;2023-04-22T04:44:59;97676.25;;;6.10;99.04
27202;BME280;14717;46.924;15.474;2023-04-22T04:47:25;97674.91;;;6.22;98.80
27202;BME280;14717;46.924;15.474;2023-04-22T04:49:50;97669.41;;;6.17;99.16
27202;BME280;14717;46.924;15.474;2023-04-22T04:52:18;97673.84;;;6.28;99.45
27202;BME280;14717;46.924;15.474;2023-04-22T04:54:43;97671.66;;;6.40;99.21
27202;BME280;14717;46.924;15.474;2023-04-22T04:57:09;97677.47;;;6.58;98.73
27202;BME280;14717;46.924;15.474;2023-04-22T04:59:34;97687.59;;;6.48;99.54
27202;BME280;14717;46.924;15.474;2023-04-22T05:01:59;97675.84;;;6.57;99.73
27202;BME280;14717;46.924;15.474;2023-04-22T05:04:25;97673.91;;;6.63;100.00
27202;BME280;14717;46.924;15.474;2023-04-22T05:06:50;97677.47;;;6.78;100.00
27202;BME280;14717;46.924;15.474;2023-04-22T05:09:16;97676.41;;;6.94;99.96
27202;BME280;14717;46.924;15.474;2023-04-22T05:11:41;97674.19;;;7.11;99.75
27202;BME280;14717;46.924;15.474;2023-04-22T05:14:07;97668.13;;;7.28;99.65
27202;BME280;14717;46.924;15.474;2023-04-22T05:16:32;97679.91;;;7.49;99.14
27202;BME280;14717;46.924;15.474;2023-04-22T05:18:57;97675.50;;;7.63;98.62
27202;BME280;14717;46.924;15.474;2023-04-22T05:21:23;97680.06;;;7.87;98.83
27202;BME280;14717;46.924;15.474;2023-04-22T05:23:48;97672.72;;;7.72;98.62
27202;BME280;14717;46.924;15.474;2023-04-22T05:26:14;97670.19;;;7.91;99.83
27202;BME280;14717;46.924;15.474;2023-04-22T05:28:39;97673.94;;;8.19;98.70
27202;BME280;14717;46.924;15.474;2023-04-22T05:31:06;97673.84;;;8.34;97.97
27202;BME280;14717;46.924;15.474;2023-04-22T05:33:31;97669.25;;;8.68;95.70
27202;BME280;14717;46.924;15.474;2023-04-22T05:35:56;97669.38;;;8.91;93.87
27202;BME280;14717;46.924;15.474;2023-04-22T05:38:22;97660.66;;;9.12;92.67
27202;BME280;14717;46.924;15.474;2023-04-22T05:40:47;97663.13;;;9.14;93.06
27202;BME280;14717;46.924;15.474;2023-04-22T05:43:13;97663.47;;;9.35;92.79
27202;BME280;14717;46.924;15.474;2023-04-22T05:45:38;97671.38;;;9.14;92.31
27202;BME280;14717;46.924;15.474;2023-04-22T05:48:03;97664.22;;;9.41;92.66
27202;BME280;14717;46.924;15.474;2023-04-22T05:50:29;97677.44;;;9.44;91.92
27202;BME280;14717;46.924;15.474;2023-04-22T05:52:54;97670.31;;;9.38;92.38
27202;BME280;14717;46.924;15.474;2023-04-22T05:55:20;97673.91;;;9.67;91.88
27202;BME280;14717;46.924;15.474;2023-04-22T05:57:45;97670.38;;;9.61;91.87
27202;BME280;14717;46.924;15.474;2023-04-22T06:00:11;97671.00;;;9.53;92.47
27202;BME280;14717;46.924;15.474;2023-04-22T06:02:36;97661.91;;;9.53;92.88
27202;BME280;14717;46.924;15.474;2023-04-22T06:05:02;97669.84;;;9.82;94.13
27202;BME280;14717;46.924;15.474;2023-04-22T06:07:27;97670.97;;;9.81;94.14
27202;BME280;14717;46.924;15.474;2023-04-22T06:09:52;97674.22;;;9.88;93.69
27202;BME280;14717;46.924;15.474;2023-04-22T06:12:18;97670.31;;;9.94;92.76
27202;BME280;14717;46.924;15.474;2023-04-22T06:14:43;97671.75;;;10.10;91.13
27202;BME280;14717;46.924;15.474;2023-04-22T06:17:09;97671.13;;;10.18;90.72
27202;BME280;14717;46.924;15.474;2023-04-22T06:19:34;97681.19;;;10.09;90.45
27202;BME280;14717;46.924;15.474;2023-04-22T06:21:59;97682.50;;;10.35;89.34
27202;BME280;14717;46.924;15.474;2023-04-22T06:24:25;97682.44;;;10.40;89.73
27202;BME280;14717;46.924;15.474;2023-04-22T06:26:50;97680.00;;;10.57;90.89
27202;BME280;14717;46.924;15.474;2023-04-22T06:29:16;97675.94;;;11.04;88.83
27202;BME280;14717;46.924;15.474;2023-04-22T06:31:41;97672.13;;;11.18;89.60
27202;BME280;14717;46.924;15.474;2023-04-22T06:34:07;97676.03;;;11.17;88.82
27202;BME280;14717;46.924;15.474;2023-04-22T06:36:32;97682.09;;;11.01;86.96
27202;BME280;14717;46.924;15.474;2023-04-22T06:39:02;97678.16;;;11.39;85.87
27202;BME280;14717;46.924;15.474;2023-04-22T06:41:28;97674.25;;;11.40;86.38
27202;BME280;14717;46.924;15.474;2023-04-22T06:43:53;97675.81;;;11.77;85.29
27202;BME280;14717;46.924;15.474;2023-04-22T06:46:19;97674.84;;;12.00;83.76
27202;BME280;14717;46.924;15.474;2023-04-22T06:48:44;97671.47;;;12.03;83.04
27202;BME280;14717;46.924;15.474;2023-04-22T06:51:10;97673.19;;;11.86;85.64
27202;BME280;14717;46.924;15.474;2023-04-22T06:53:35;97673.72;;;11.56;84.41
27202;BME280;14717;46.924;15.474;2023-04-22T06:56:00;97673.59;;;12.06;84.64
27202;BME280;14717;46.924;15.474;2023-04-22T06:58:26;97673.63;;;12.32;82.12
27202;BME280;14717;46.924;15.474;2023-04-22T07:00:51;97673.22;;;12.39;81.50
27202;BME280;14717;46.924;15.474;2023-04-22T07:03:16;97674.44;;;12.20;81.62
27202;BME280;14717;46.924;15.474;2023-04-22T07:05:42;97675.03;;;12.43;83.42
27202;BME280;14717;46.924;15.474;2023-04-22T07:08:07;97670.09;;;12.67;80.99
27202;BME280;14717;46.924;15.474;2023-04-22T07:10:33;97666.78;;;12.92;80.97
27202;BME280;14717;46.924;15.474;2023-04-22T07:12:58;97659.59;;;12.91;79.54
27202;BME280;14717;46.924;15.474;2023-04-22T07:15:24;97664.41;;;13.20;78.90
27202;BME280;14717;46.924;15.474;2023-04-22T07:17:49;97657.72;;;13.43;76.59
27202;BME280;14717;46.924;15.474;2023-04-22T07:20:14;97653.44;;;13.16;79.10
27202;BME280;14717;46.924;15.474;2023-04-22T07:22:40;97661.44;;;13.17;78.27
27202;BME280;14717;46.924;15.474;2023-04-22T07:25:05;97654.84;;;13.26;76.83
27202;BME280;14717;46.924;15.474;2023-04-22T07:27:33;97649.97;;;13.32;75.52
27202;BME280;14717;46.924;15.474;2023-04-22T07:29:59;97652.81;;;13.40;76.37
27202;BME280;14717;46.924;15.474;2023-04-22T07:32:24;97646.38;;;13.53;77.97
27202;BME280;14717;46.924;15.474;2023-04-22T07:34:50;97661.00;;;13.45;77.16
27202;BME280;14717;46.924;15.474;2023-04-22T07:37:15;97653.13;;;13.91;75.02
27202;BME280;14717;46.924;15.474;2023-04-22T07:39:41;97656.75;;;14.00;74.22
27202;BME280;14717;46.924;15.474;2023-04-22T07:42:06;97652.03;;;14.30;73.17
27202;BME280;14717;46.924;15.474;2023-04-22T07:44:31;97655.94;;;14.76;69.73
27202;BME280;14717;46.924;15.474;2023-04-22T07:46:57;97649.75;;;15.04;67.39
27202;BME280;14717;46.924;15.474;2023-04-22T07:49:23;97651.75;;;15.21;64.81
27202;BME280;14717;46.924;15.474;2023-04-22T07:51:50;97649.13;;;15.32;67.26
27202;BME280;14717;46.924;15.474;2023-04-22T07:54:15;97643.06;;;15.31;65.01
27202;BME280;14717;46.924;15.474;2023-04-22T07:56:40;97645.53;;;15.24;65.07
27202;BME280;14717;46.924;15.474;2023-04-22T07:59:06;97642.56;;;15.45;66.41
27202;BME280;14717;46.924;15.474;2023-04-22T08:01:31;97640.53;;;15.88;65.23
27202;BME280;14717;46.924;15.474;2023-04-22T08:03:56;97646.00;;;16.13;67.16
27202;BME280;14717;46.924;15.474;2023-04-22T08:06:22;97646.19;;;16.08;65.67
27202;BME280;14717;46.924;15.474;2023-04-22T08:08:47;97642.88;;;16.23;65.99
27202;BME280;14717;46.924;15.474;2023-04-22T08:11:12;97637.59;;;16.38;66.22
27202;BME280;14717;46.924;15.474;2023-04-22T08:13:37;97638.22;;;16.44;62.58
27202;BME280;14717;46.924;15.474;2023-04-22T08:16:03;97640.34;;;16.47;59.07
27202;BME280;14717;46.924;15.474;2023-04-22T08:18:28;97638.59;;;16.62;63.49
27202;BME280;14717;46.924;15.474;2023-04-22T08:20:54;97642.31;;;16.75;59.99
27202;BME280;14717;46.924;15.474;2023-04-22T08:23:20;97640.72;;;16.94;57.63
27202;BME280;14717;46.924;15.474;2023-04-22T08:25:45;97638.59;;;16.91;58.67
27202;BME280;14717;46.924;15.474;2023-04-22T08:28:11;97635.19;;;17.06;57.58
27202;BME280;14717;46.924;15.474;2023-04-22T08:30:36;97635.81;;;17.11;57.00
27202;BME280;14717;46.924;15.474;2023-04-22T08:33:02;97638.59;;;17.11;57.38
27202;BME280;14717;46.924;15.474;2023-04-22T08:35:35;97637.81;;;17.31;57.80
27202;BME280;14717;46.924;15.474;2023-04-22T08:41:25;97624.03;;;17.47;57.52
27202;BME280;14717;46.924;15.474;2023-04-22T08:43:52;97629.47;;;17.63;58.07
27202;BME280;14717;46.924;15.474;2023-04-22T08:46:18;97624.75;;;17.88;57.80
27202;BME280;14717;46.924;15.474;2023-04-22T08:48:49;97629.28;;;17.80;57.01
27202;BME280;14717;46.924;15.474;2023-04-22T08:51:15;97624.84;;;17.79;57.93
27202;BME280;14717;46.924;15.474;2023-04-22T08:53:42;97626.41;;;17.56;57.10
27202;BME280;14717;46.924;15.474;2023-04-22T08:56:08;97625.63;;;17.68;56.40
27202;BME280;14717;46.924;15.474;2023-04-22T08:58:35;97624.94;;;17.71;57.62
27202;BME280;14717;46.924;15.474;2023-04-22T09:01:01;97621.97;;;18.20;58.25
27202;BME280;14717;46.924;15.474;2023-04-22T09:03:27;97624.41;;;18.21;56.52
27202;BME280;14717;46.924;15.474;2023-04-22T09:05:54;97628.66;;;18.39;57.32
27202;BME280;14717;46.924;15.474;2023-04-22T09:08:20;97632.00;;;18.33;56.65
27202;BME280;14717;46.924;15.474;2023-04-22T09:10:46;97627.03;;;18.06;56.94
27202;BME280;14717;46.924;15.474;2023-04-22T09:13:12;97628.47;;;18.24;56.71
27202;BME280;14717;46.924;15.474;2023-04-22T09:15:38;97624.69;;;18.52;55.40
27202;BME280;14717;46.924;15.474;2023-04-22T09:18:03;97625.00;;;18.27;55.83
27202;BME280;14717;46.924;15.474;2023-04-22T09:20:40;97613.72;;;18.59;56.03
27202;BME280;14717;46.924;15.474;2023-04-22T09:23:24;97615.00;;;18.61;54.03
27202;BME280;14717;46.924;15.474;2023-04-22T09:25:50;97615.81;;;18.74;54.48
27202;BME280;14717;46.924;15.474;2023-04-22T09:28:17;97618.72;;;18.89;53.11
27202;BME280;14717;46.924;15.474;2023-04-22T09:30:44;97615.91;;;19.01;53.38
27202;BME280;14717;46.924;15.474;2023-04-22T09:33:10;97611.22;;;18.93;51.93
27202;BME280;14717;46.924;15.474;2023-04-22T09:35:39;97608.88;;;19.19;52.37
27202;BME280;14717;46.924;15.474;2023-04-22T09:38:07;97605.91;;;19.39;52.49
27202;BME280;14717;46.924;15.474;2023-04-22T09:40:34;97597.22;;;19.17;52.20
27202;BME280;14717;46.924;15.474;2023-04-22T09:43:01;97603.56;;;19.41;51.33
27202;BME280;14717;46.924;15.474;2023-04-22T09:45:35;97595.47;;;19.12;52.21
27202;BME280;14717;46.924;15.474;2023-04-22T09:48:10;97587.25;;;19.58;51.75
27202;BME280;14717;46.924;15.474;2023-04-22T09:50:43;97580.25;;;19.64;50.33
27202;BME280;14717;46.924;15.474;2023-04-22T09:53:11;97586.44;;;19.30;50.96
27202;BME280;14717;46.924;15.474;2023-04-22T09:55:42;97577.69;;;19.59;54.20
27202;BME280;14717;46.924;15.474;2023-04-22T09:58:13;97576.16;;;19.89;52.26
27202;BME280;14717;46.924;15.474;2023-04-22T10:00:44;97563.69;;;20.02;50.54
27202;BME280;14717;46.924;15.474;2023-04-22T10:03:11;97578.00;;;20.12;49.83
27202;BME280;14717;46.924;15.474;2023-04-22T10:05:37;97572.28;;;20.24;49.43
27202;BME280;14717;46.924;15.474;2023-04-22T10:08:08;97564.94;;;20.19;49.21
27202;BME280;14717;46.924;15.474;2023-04-22T10:10:36;97568.66;;;20.39;47.93
27202;BME280;14717;46.924;15.474;2023-04-22T10:13:03;97561.25;;;20.31;46.97
27202;BME280;14717;46.924;15.474;2023-04-22T10:15:35;97558.00;;;20.29;47.67
27202;BME280;14717;46.924;15.474;2023-04-22T10:18:04;97548.94;;;20.35;46.73
27202;BME280;14717;46.924;15.474;2023-04-22T10:20:32;97558.00;;;20.44;47.17
27202;BME280;14717;46.924;15.474;2023-04-22T10:23:03;97555.28;;;20.48;47.19
27202;BME280;14717;46.924;15.474;2023-04-22T10:25:29;97555.63;;;20.61;45.54
27202;BME280;14717;46.924;15.474;2023-04-22T10:28:09;97549.91;;;20.58;47.02
27202;BME280;14717;46.924;15.474;2023-04-22T10:30:36;97549.91;;;20.89;49.37
27202;BME280;14717;46.924;15.474;2023-04-22T10:36:14;97537.63;;;20.96;47.02
27202;BME280;14717;46.924;15.474;2023-04-22T10:41:23;97539.16;;;21.28;45.95
27202;BME280;14717;46.924;15.474;2023-04-22T10:43:57;97542.53;;;21.37;45.04
27202;BME280;14717;46.924;15.474;2023-04-22T10:49:04;97537.06;;;21.25;47.34
27202;BME280;14717;46.924;15.474;2023-04-22T10:51:44;97545.97;;;21.46;46.29
27202;BME280;14717;46.924;15.474;2023-04-22T10:59:56;97532.47;;;21.36;46.58
27202;BME280;14717;46.924;15.474;2023-04-22T11:02:20;97537.50;;;21.08;46.34
27202;BME280;14717;46.924;15.474;2023-04-22T11:04:46;97528.34;;;21.49;48.77
27202;BME280;14717;46.924;15.474;2023-04-22T11:09:58;97522.88;;;21.97;44.76
27202;BME280;14717;46.924;15.474;2023-04-22T11:15:13;97520.22;;;22.04;44.97
27202;BME280;14717;46.924;15.474;2023-04-22T11:17:41;97525.44;;;22.24;44.25
27202;BME280;14717;46.924;15.474;2023-04-22T11:20:08;97514.91;;;22.21;41.91
27202;BME280;14717;46.924;15.474;2023-04-22T11:22:38;97521.66;;;22.39;42.32
27202;BME280;14717;46.924;15.474;2023-04-22T11:25:04;97514.25;;;21.86;42.39
27202;BME280;14717;46.924;15.474;2023-04-22T11:27:31;97514.28;;;22.09;43.22
27202;BME280;14717;46.924;15.474;2023-04-22T11:32:26;97506.19;;;22.52;42.68
27202;BME280;14717;46.924;15.474;2023-04-22T11:34:52;97508.13;;;22.48;42.25
27202;BME280;14717;46.924;15.474;2023-04-22T11:37:18;97507.47;;;22.32;41.24
27202;BME280;14717;46.924;15.474;2023-04-22T11:39:43;97507.03;;;22.30;45.05
27202;BME280;14717;46.924;15.474;2023-04-22T11:42:11;97504.66;;;22.32;42.15
27202;BME280;14717;46.924;15.474;2023-04-22T11:44:37;97509.97;;;22.37;41.36
27202;BME280;14717;46.924;15.474;2023-04-22T11:47:03;97506.25;;;22.55;41.63
27202;BME280;14717;46.924;15.474;2023-04-22T11:49:28;97503.84;;;22.57;41.58
27202;BME280;14717;46.924;15.474;2023-04-22T11:51:57;97504.81;;;22.42;42.81
27202;BME280;14717;46.924;15.474;2023-04-22T11:54:33;97501.25;;;22.45;42.24
27202;BME280;14717;46.924;15.474;2023-04-22T11:57:06;97494.34;;;22.43;40.61
27202;BME280;14717;46.924;15.474;2023-04-22T11:59:33;97485.94;;;22.68;42.04
27202;BME280;14717;46.924;15.474;2023-04-22T12:01:58;97502.06;;;22.71;39.82
27202;BME280;14717;46.924;15.474;2023-04-22T12:04:24;97489.88;;;22.90;40.33
27202;BME280;14717;46.924;15.474;2023-04-22T12:06:52;97495.38;;;23.08;39.85
27202;BME280;14717;46.924;15.474;2023-04-22T12:09:18;97482.75;;;23.28;39.46
27202;BME280;14717;46.924;15.474;2023-04-22T12:11:44;97489.00;;;23.11;39.60
27202;BME280;14717;46.924;15.474;2023-04-22T12:14:10;97491.91;;;23.18;39.65
27202;BME280;14717;46.924;15.474;2023-04-22T12:16:40;97488.06;;;23.01;39.36
27202;BME280;14717;46.924;15.474;2023-04-22T12:19:05;97489.13;;;22.67;40.30
27202;BME280;14717;46.924;15.474;2023-04-22T12:21:31;97485.06;;;22.65;39.99
27202;BME280;14717;46.924;15.474;2023-04-22T12:24:01;97486.69;;;22.65;40.32
27202;BME280;14717;46.924;15.474;2023-04-22T12:26:30;97475.09;;;22.45;41.15
27202;BME280;14717;46.924;15.474;2023-04-22T12:28:57;97481.69;;;22.30;42.94
27202;BME280;14717;46.924;15.474;2023-04-22T12:31:23;97486.13;;;22.09;42.72
27202;BME280;14717;46.924;15.474;2023-04-22T12:33:49;97485.75;;;22.10;40.60
27202;BME280;14717;46.924;15.474;2023-04-22T12:36:14;97487.03;;;22.16;41.33
27202;BME280;14717;46.924;15.474;2023-04-22T12:38:40;97481.03;;;22.65;40.80
27202;BME280;14717;46.924;15.474;2023-04-22T12:41:06;97477.91;;;22.70;41.34
27202;BME280;14717;46.924;15.474;2023-04-22T12:43:32;97476.50;;;22.83;40.23
27202;BME280;14717;46.924;15.474;2023-04-22T12:46:01;97475.06;;;22.93;39.63
27202;BME280;14717;46.924;15.474;2023-04-22T12:48:26;97478.56;;;22.86;39.40
27202;BME280;14717;46.924;15.474;2023-04-22T12:50:52;97472.38;;;23.03;39.85
27202;BME280;14717;46.924;15.474;2023-04-22T12:53:17;97468.66;;;22.96;38.55
27202;BME280;14717;46.924;15.474;2023-04-22T12:55:42;97466.44;;;23.11;39.71
27202;BME280;14717;46.924;15.474;2023-04-22T12:58:08;97464.44;;;23.12;39.73
27202;BME280;14717;46.924;15.474;2023-04-22T13:00:33;97459.59;;;22.83;39.79
27202;BME280;14717;46.924;15.474;2023-04-22T13:02:59;97464.00;;;23.10;40.19
27202;BME280;14717;46.924;15.474;2023-04-22T13:05:25;97454.09;;;23.23;38.40
27202;BME280;14717;46.924;15.474;2023-04-22T13:07:50;97446.78;;;23.18;38.87
27202;BME280;14717;46.924;15.474;2023-04-22T13:10:16;97445.97;;;23.18;39.06
27202;BME280;14717;46.924;15.474;2023-04-22T13:12:42;97442.47;;;23.28;39.62
27202;BME280;14717;46.924;15.474;2023-04-22T13:15:09;97442.75;;;23.49;39.12
27202;BME280;14717;46.924;15.474;2023-04-22T13:17:35;97438.31;;;23.18;38.41
27202;BME280;14717;46.924;15.474;2023-04-22T13:20:01;97443.84;;;23.08;38.33
27202;BME280;14717;46.924;15.474;2023-04-22T13:22:28;97434.19;;;23.09;38.51
27202;BME280;14717;46.924;15.474;2023-04-22T13:24:53;97436.69;;;23.14;37.08
27202;BME280;14717;46.924;15.474;2023-04-22T13:27:19;97429.31;;;23.06;38.22
27202;BME280;14717;46.924;15.474;2023-04-22T13:29:44;97427.84;;;23.15;40.42
27202;BME280;14717;46.924;15.474;2023-04-22T13:32:10;97418.91;;;22.81;38.84
27202;BME280;14717;46.924;15.474;2023-04-22T13:34:37;97421.38;;;23.15;38.73
27202;BME280;14717;46.924;15.474;2023-04-22T13:37:03;97423.16;;;23.30;38.82
27202;BME280;14717;46.924;15.474;2023-04-22T13:39:28;97412.69;;;23.27;39.16
27202;BME280;14717;46.924;15.474;2023-04-22T13:41:53;97419.63;;;23.04;38.23
27202;BME280;14717;46.924;15.474;2023-04-22T13:44:19;97412.75;;;23.01;38.77
27202;BME280;14717;46.924;15.474;2023-04-22T13:46:44;97407.72;;;23.17;39.19
27202;BME280;14717;46.924;15.474;2023-04-22T13:49:10;97409.19;;;23.04;39.66
27202;BME280;14717;46.924;15.474;2023-04-22T13:51:35;97403.34;;;23.23;38.72
27202;BME280;14717;46.924;15.474;2023-04-22T13:54:05;97396.50;;;23.20;39.21
27202;BME280;14717;46.924;15.474;2023-04-22T13:56:31;97411.63;;;23.42;37.99
27202;BME280;14717;46.924;15.474;2023-04-22T13:58:57;97403.19;;;23.42;37.73
27202;BME280;14717;46.924;15.474;2023-04-22T14:01:22;97399.31;;;23.20;37.07
27202;BME280;14717;46.924;15.474;2023-04-22T14:03:49;97402.50;;;23.19;37.58
27202;BME280;14717;46.924;15.474;2023-04-22T14:06:15;97402.78;;;23.07;38.32
27202;BME280;14717;46.924;15.474;2023-04-22T14:08:40;97395.41;;;22.99;37.40
27202;BME280;14717;46.924;15.474;2023-04-22T14:11:07;97395.97;;;22.82;37.28